sensor_id;sensor_type;location;lat;lon;timestamp;temperature;humidity
37426;DHT22;23285;50.180;7.036;2022-07-21T00:07:43;21.60;99.90
37426;DHT22;23285;50.180;7.036;2022-07-21T00:10:32;21.90;99.90
37426;DHT22;23285;50.180;7.036;2022-07-21T00:16:07;21.70;99.90
37426;DHT22;23285;50.180;7.036;2022-07-21T00:18:56;21.10;99.90
37426;DHT22;23285;50.180;7.036;2022-07-21T00:21:46;20.70;99.90
37426;DHT22;23285;50.180;7.036;2022-07-21T00:24:31;20.80;99.90
37426;DHT22;23285;50.180;7.036;2022-07-21T00:27:20;20.90;99.90
37426;DHT22;23285;50.180;7.036;2022-07-21T00:30:09;21.30;99.90
37426;DHT22;23285;50.180;7.036;2022-07-21T00:32:58;21.20;99.90
37426;DHT22;23285;50.180;7.036;2022-07-21T00:35:46;21.20;99.90
37426;DHT22;23285;50.180;7.036;2022-07-21T00:38:36;21.30;99.90
37426;DHT22;23285;50.180;7.036;2022-07-21T00:41:25;21.20;99.90
37426;DHT22;23285;50.180;7.036;2022-07-21T00:44:24;21.10;99.90
37426;DHT22;23285;50.180;7.036;2022-07-21T00:47:10;20.90;99.90
37426;DHT22;23285;50.180;7.036;2022-07-21T00:50:00;20.80;99.90
37426;DHT22;23285;50.180;7.036;2022-07-21T00:52:51;20.90;99.90
37426;DHT22;23285;50.180;7.036;2022-07-21T00:55:44;21.10;99.90
37426;DHT22;23285;50.180;7.036;2022-07-21T00:58:33;21.10;99.90
37426;DHT22;23285;50.180;7.036;2022-07-21T01:04:07;21.10;99.90
37426;DHT22;23285;50.180;7.036;2022-07-21T01:06:54;20.80;99.90
37426;DHT22;23285;50.180;7.036;2022-07-21T01:09:43;20.70;99.90
37426;DHT22;23285;50.180;7.036;2022-07-21T01:12:33;20.60;99.90
37426;DHT22;23285;50.180;7.036;2022-07-21T01:18:07;20.20;99.90
37426;DHT22;23285;50.180;7.036;2022-07-21T01:20:54;20.40;99.90
37426;DHT22;23285;50.180;7.036;2022-07-21T01:23:42;20.10;99.90
37426;DHT22;23285;50.180;7.036;2022-07-21T01:26:39;20.10;99.90
37426;DHT22;23285;50.180;7.036;2022-07-21T01:29:28;20.10;99.90
37426;DHT22;23285;50.180;7.036;2022-07-21T01:32:17;20.00;99.90
37426;DHT22;23285;50.180;7.036;2022-07-21T01:35:05;20.40;99.90
37426;DHT22;23285;50.180;7.036;2022-07-21T01:44:06;20.60;99.90
37426;DHT22;23285;50.180;7.036;2022-07-21T01:46:52;20.50;99.90
37426;DHT22;23285;50.180;7.036;2022-07-21T01:49:39;20.50;99.90
37426;DHT22;23285;50.180;7.036;2022-07-21T01:52:25;20.60;99.90
37426;DHT22;23285;50.180;7.036;2022-07-21T01:55:10;20.40;99.90
37426;DHT22;23285;50.180;7.036;2022-07-21T02:06:14;20.50;99.90
37426;DHT22;23285;50.180;7.036;2022-07-21T02:09:02;20.30;99.90
37426;DHT22;23285;50.180;7.036;2022-07-21T02:11:48;20.40;99.90
37426;DHT22;23285;50.180;7.036;2022-07-21T02:14:37;20.20;99.90
37426;DHT22;23285;50.180;7.036;2022-07-21T02:20:12;20.40;99.90
37426;DHT22;23285;50.180;7.036;2022-07-21T02:23:00;20.00;99.90
37426;DHT22;23285;50.180;7.036;2022-07-21T02:25:49;19.90;99.90
37426;DHT22;23285;50.180;7.036;2022-07-21T02:31:20;19.80;99.90
37426;DHT22;23285;50.180;7.036;2022-07-21T02:34:08;19.90;99.90
37426;DHT22;23285;50.180;7.036;2022-07-21T02:36:54;20.00;99.90
37426;DHT22;23285;50.180;7.036;2022-07-21T02:39:43;20.30;99.90
37426;DHT22;23285;50.180;7.036;2022-07-21T02:42:31;20.40;99.90
37426;DHT22;23285;50.180;7.036;2022-07-21T02:45:18;20.00;99.90
37426;DHT22;23285;50.180;7.036;2022-07-21T02:50:55;20.60;99.90
37426;DHT22;23285;50.180;7.036;2022-07-21T02:53:43;20.40;99.90
37426;DHT22;23285;50.180;7.036;2022-07-21T02:56:29;20.30;99.90
37426;DHT22;23285;50.180;7.036;2022-07-21T02:59:17;20.40;99.90
37426;DHT22;23285;50.180;7.036;2022-07-21T03:02:06;20.30;99.90
37426;DHT22;23285;50.180;7.036;2022-07-21T03:04:54;19.90;99.90
37426;DHT22;23285;50.180;7.036;2022-07-21T03:07:41;19.90;99.90
37426;DHT22;23285;50.180;7.036;2022-07-21T03:10:31;19.60;99.90
37426;DHT22;23285;50.180;7.036;2022-07-21T03:13:20;19.70;99.90
37426;DHT22;23285;50.180;7.036;2022-07-21T03:16:06;19.80;99.90
37426;DHT22;23285;50.180;7.036;2022-07-21T03:21:41;19.60;99.90
37426;DHT22;23285;50.180;7.036;2022-07-21T03:24:28;19.50;99.90
37426;DHT22;23285;50.180;7.036;2022-07-21T03:27:16;19.60;99.90
37426;DHT22;23285;50.180;7.036;2022-07-21T03:30:08;19.60;99.90
37426;DHT22;23285;50.180;7.036;2022-07-21T03:32:56;19.40;99.90
37426;DHT22;23285;50.180;7.036;2022-07-21T03:35:42;19.30;99.90
37426;DHT22;23285;50.180;7.036;2022-07-21T03:44:00;19.40;99.90
37426;DHT22;23285;50.180;7.036;2022-07-21T03:46:45;19.40;99.90
37426;DHT22;23285;50.180;7.036;2022-07-21T03:49:35;19.50;99.90
37426;DHT22;23285;50.180;7.036;2022-07-21T03:55:07;19.20;99.90
37426;DHT22;23285;50.180;7.036;2022-07-21T03:58:03;19.00;99.90
37426;DHT22;23285;50.180;7.036;2022-07-21T04:00:49;19.30;99.90
37426;DHT22;23285;50.180;7.036;2022-07-21T04:03:35;19.40;99.90
37426;DHT22;23285;50.180;7.036;2022-07-21T04:06:24;19.60;99.90
37426;DHT22;23285;50.180;7.036;2022-07-21T04:09:10;19.80;99.90
37426;DHT22;23285;50.180;7.036;2022-07-21T04:11:56;19.80;99.90
37426;DHT22;23285;50.180;7.036;2022-07-21T04:14:44;19.80;99.90
37426;DHT22;23285;50.180;7.036;2022-07-21T04:17:29;19.80;99.90
37426;DHT22;23285;50.180;7.036;2022-07-21T04:20:18;19.50;99.90
37426;DHT22;23285;50.180;7.036;2022-07-21T04:23:05;19.80;99.90
37426;DHT22;23285;50.180;7.036;2022-07-21T04:31:24;19.70;99.90
37426;DHT22;23285;50.180;7.036;2022-07-21T04:34:10;19.80;99.90
37426;DHT22;23285;50.180;7.036;2022-07-21T04:36:56;19.70;99.90
37426;DHT22;23285;50.180;7.036;2022-07-21T04:39:42;19.80;99.90
37426;DHT22;23285;50.180;7.036;2022-07-21T04:42:27;19.80;99.90
37426;DHT22;23285;50.180;7.036;2022-07-21T04:45:15;19.80;99.90
37426;DHT22;23285;50.180;7.036;2022-07-21T04:48:01;19.70;99.90
37426;DHT22;23285;50.180;7.036;2022-07-21T04:50:49;19.80;99.90
37426;DHT22;23285;50.180;7.036;2022-07-21T04:53:38;19.70;99.90
37426;DHT22;23285;50.180;7.036;2022-07-21T04:56:27;19.80;99.90
37426;DHT22;23285;50.180;7.036;2022-07-21T04:59:12;20.10;99.90
37426;DHT22;23285;50.180;7.036;2022-07-21T05:04:48;20.10;99.90
37426;DHT22;23285;50.180;7.036;2022-07-21T05:07:34;20.40;99.90
37426;DHT22;23285;50.180;7.036;2022-07-21T05:10:20;20.40;99.90
37426;DHT22;23285;50.180;7.036;2022-07-21T05:13:06;20.40;99.90
37426;DHT22;23285;50.180;7.036;2022-07-21T05:18:37;20.10;99.90
37426;DHT22;23285;50.180;7.036;2022-07-21T05:21:23;19.90;99.90
37426;DHT22;23285;50.180;7.036;2022-07-21T05:26:54;20.10;99.90
37426;DHT22;23285;50.180;7.036;2022-07-21T05:29:40;20.00;99.90
37426;DHT22;23285;50.180;7.036;2022-07-21T05:32:25;20.10;99.90
37426;DHT22;23285;50.180;7.036;2022-07-21T05:35:11;20.20;99.90
37426;DHT22;23285;50.180;7.036;2022-07-21T05:37:57;20.00;99.90
37426;DHT22;23285;50.180;7.036;2022-07-21T05:43:29;19.80;99.90
37426;DHT22;23285;50.180;7.036;2022-07-21T05:46:15;19.80;99.90
37426;DHT22;23285;50.180;7.036;2022-07-21T05:51:46;19.80;99.90
37426;DHT22;23285;50.180;7.036;2022-07-21T05:54:31;19.70;99.90
37426;DHT22;23285;50.180;7.036;2022-07-21T05:57:17;19.90;99.90
37426;DHT22;23285;50.180;7.036;2022-07-21T06:00:03;19.90;99.90
37426;DHT22;23285;50.180;7.036;2022-07-21T06:02:52;19.80;99.90
37426;DHT22;23285;50.180;7.036;2022-07-21T06:05:38;20.00;99.90
37426;DHT22;23285;50.180;7.036;2022-07-21T06:08:23;20.00;99.90
37426;DHT22;23285;50.180;7.036;2022-07-21T06:11:11;19.90;99.90
37426;DHT22;23285;50.180;7.036;2022-07-21T06:13:56;20.10;99.90
37426;DHT22;23285;50.180;7.036;2022-07-21T06:16:42;19.80;99.90
37426;DHT22;23285;50.180;7.036;2022-07-21T06:19:27;19.90;99.90
37426;DHT22;23285;50.180;7.036;2022-07-21T06:24:59;19.90;99.90
37426;DHT22;23285;50.180;7.036;2022-07-21T06:33:16;19.90;99.90
37426;DHT22;23285;50.180;7.036;2022-07-21T06:44:21;19.80;99.90
37426;DHT22;23285;50.180;7.036;2022-07-21T06:47:10;19.90;99.90
37426;DHT22;23285;50.180;7.036;2022-07-21T06:52:42;19.90;99.90
37426;DHT22;23285;50.180;7.036;2022-07-21T06:58:16;19.80;99.90
37426;DHT22;23285;50.180;7.036;2022-07-21T07:01:02;19.80;99.90
37426;DHT22;23285;50.180;7.036;2022-07-21T07:03:47;19.80;99.90
37426;DHT22;23285;50.180;7.036;2022-07-21T07:06:33;20.00;99.90
37426;DHT22;23285;50.180;7.036;2022-07-21T07:09:18;20.10;99.90
37426;DHT22;23285;50.180;7.036;2022-07-21T07:12:05;19.80;99.90
37426;DHT22;23285;50.180;7.036;2022-07-21T07:14:54;20.00;99.90
37426;DHT22;23285;50.180;7.036;2022-07-21T07:17:39;20.10;99.90
37426;DHT22;23285;50.180;7.036;2022-07-21T07:23:10;19.90;99.90
37426;DHT22;23285;50.180;7.036;2022-07-21T07:25:56;20.00;99.90
37426;DHT22;23285;50.180;7.036;2022-07-21T07:28:41;19.90;99.90
37426;DHT22;23285;50.180;7.036;2022-07-21T07:31:27;20.00;99.90
37426;DHT22;23285;50.180;7.036;2022-07-21T07:36:58;20.00;99.90
37426;DHT22;23285;50.180;7.036;2022-07-21T07:39:43;20.30;99.90
37426;DHT22;23285;50.180;7.036;2022-07-21T07:42:28;20.40;99.90
37426;DHT22;23285;50.180;7.036;2022-07-21T07:45:14;20.20;99.90
37426;DHT22;23285;50.180;7.036;2022-07-21T07:47:59;20.30;99.90
37426;DHT22;23285;50.180;7.036;2022-07-21T07:50:45;20.10;99.90
37426;DHT22;23285;50.180;7.036;2022-07-21T07:56:16;20.20;99.90
37426;DHT22;23285;50.180;7.036;2022-07-21T08:01:47;20.30;99.90
37426;DHT22;23285;50.180;7.036;2022-07-21T08:04:33;20.70;99.90
37426;DHT22;23285;50.180;7.036;2022-07-21T08:10:10;20.70;99.90
37426;DHT22;23285;50.180;7.036;2022-07-21T08:12:59;20.80;99.90
37426;DHT22;23285;50.180;7.036;2022-07-21T08:15:49;20.70;99.90
37426;DHT22;23285;50.180;7.036;2022-07-21T08:18:38;20.80;99.90
37426;DHT22;23285;50.180;7.036;2022-07-21T08:21:27;20.50;99.90
37426;DHT22;23285;50.180;7.036;2022-07-21T08:27:01;20.90;99.90
37426;DHT22;23285;50.180;7.036;2022-07-21T08:29:50;21.00;99.90
37426;DHT22;23285;50.180;7.036;2022-07-21T08:32:39;21.30;99.90
37426;DHT22;23285;50.180;7.036;2022-07-21T08:35:28;21.20;99.90
37426;DHT22;23285;50.180;7.036;2022-07-21T08:41:05;21.00;99.90
37426;DHT22;23285;50.180;7.036;2022-07-21T08:43:53;21.10;99.90
37426;DHT22;23285;50.180;7.036;2022-07-21T08:46:43;21.20;99.90
37426;DHT22;23285;50.180;7.036;2022-07-21T08:49:37;21.70;99.90
37426;DHT22;23285;50.180;7.036;2022-07-21T08:52:26;21.50;99.90
37426;DHT22;23285;50.180;7.036;2022-07-21T08:55:16;21.30;99.90
37426;DHT22;23285;50.180;7.036;2022-07-21T08:58:08;21.40;99.90
37426;DHT22;23285;50.180;7.036;2022-07-21T09:00:56;21.30;99.90
37426;DHT22;23285;50.180;7.036;2022-07-21T09:03:46;21.30;99.90
37426;DHT22;23285;50.180;7.036;2022-07-21T09:09:35;21.60;99.90
37426;DHT22;23285;50.180;7.036;2022-07-21T09:12:20;21.60;99.90
37426;DHT22;23285;50.180;7.036;2022-07-21T09:15:14;21.70;99.90
37426;DHT22;23285;50.180;7.036;2022-07-21T09:18:11;21.60;99.90
37426;DHT22;23285;50.180;7.036;2022-07-21T09:21:01;21.50;99.90
37426;DHT22;23285;50.180;7.036;2022-07-21T09:23:47;21.80;99.90
37426;DHT22;23285;50.180;7.036;2022-07-21T09:26:32;22.00;99.90
37426;DHT22;23285;50.180;7.036;2022-07-21T09:35:07;22.10;99.90
37426;DHT22;23285;50.180;7.036;2022-07-21T09:38:12;22.10;99.90
37426;DHT22;23285;50.180;7.036;2022-07-21T09:43:53;22.20;99.90
37426;DHT22;23285;50.180;7.036;2022-07-21T09:46:39;22.20;99.90
37426;DHT22;23285;50.180;7.036;2022-07-21T09:49:31;22.20;99.90
37426;DHT22;23285;50.180;7.036;2022-07-21T09:52:30;22.00;99.90
37426;DHT22;23285;50.180;7.036;2022-07-21T09:55:16;22.30;99.90
37426;DHT22;23285;50.180;7.036;2022-07-21T09:58:02;22.60;99.90
37426;DHT22;23285;50.180;7.036;2022-07-21T10:00:48;22.70;99.90
37426;DHT22;23285;50.180;7.036;2022-07-21T10:03:35;22.40;99.90
37426;DHT22;23285;50.180;7.036;2022-07-21T10:06:27;22.70;99.90
37426;DHT22;23285;50.180;7.036;2022-07-21T10:11:59;23.10;99.90
37426;DHT22;23285;50.180;7.036;2022-07-21T10:17:32;22.40;99.90
37426;DHT22;23285;50.180;7.036;2022-07-21T10:20:29;22.40;99.90
37426;DHT22;23285;50.180;7.036;2022-07-21T10:23:31;22.30;99.90
37426;DHT22;23285;50.180;7.036;2022-07-21T10:29:05;22.30;99.90
37426;DHT22;23285;50.180;7.036;2022-07-21T10:31:50;22.60;99.90
37426;DHT22;23285;50.180;7.036;2022-07-21T10:34:35;22.80;99.90
37426;DHT22;23285;50.180;7.036;2022-07-21T10:45:56;23.00;99.90
37426;DHT22;23285;50.180;7.036;2022-07-21T10:48:48;23.00;99.90
37426;DHT22;23285;50.180;7.036;2022-07-21T10:54:22;22.80;99.90
37426;DHT22;23285;50.180;7.036;2022-07-21T10:57:27;23.10;99.90
37426;DHT22;23285;50.180;7.036;2022-07-21T11:03:18;23.50;99.90
37426;DHT22;23285;50.180;7.036;2022-07-21T11:12:02;23.80;99.50
37426;DHT22;23285;50.180;7.036;2022-07-21T11:17:36;24.20;99.00
37426;DHT22;23285;50.180;7.036;2022-07-21T11:20:22;24.20;98.20
37426;DHT22;23285;50.180;7.036;2022-07-21T11:25:53;24.20;98.80
37426;DHT22;23285;50.180;7.036;2022-07-21T11:28:38;24.00;98.60
37426;DHT22;23285;50.180;7.036;2022-07-21T11:31:24;24.20;99.90
37426;DHT22;23285;50.180;7.036;2022-07-21T11:34:09;24.30;98.10
37426;DHT22;23285;50.180;7.036;2022-07-21T11:36:59;24.50;97.90
37426;DHT22;23285;50.180;7.036;2022-07-21T11:39:45;24.60;97.20
37426;DHT22;23285;50.180;7.036;2022-07-21T11:42:31;24.30;98.10
37426;DHT22;23285;50.180;7.036;2022-07-21T11:45:16;23.90;98.40
37426;DHT22;23285;50.180;7.036;2022-07-21T11:48:02;23.90;99.10
37426;DHT22;23285;50.180;7.036;2022-07-21T11:50:59;24.00;98.30
37426;DHT22;23285;50.180;7.036;2022-07-21T11:53:45;24.20;99.90
37426;DHT22;23285;50.180;7.036;2022-07-21T11:56:39;24.10;98.60
37426;DHT22;23285;50.180;7.036;2022-07-21T12:02:12;24.00;99.40
37426;DHT22;23285;50.180;7.036;2022-07-21T12:04:59;24.20;99.90
37426;DHT22;23285;50.180;7.036;2022-07-21T12:07:47;24.40;98.90
37426;DHT22;23285;50.180;7.036;2022-07-21T12:10:33;24.70;99.00
37426;DHT22;23285;50.180;7.036;2022-07-21T12:13:19;24.80;97.50
37426;DHT22;23285;50.180;7.036;2022-07-21T12:16:05;24.70;96.20
37426;DHT22;23285;50.180;7.036;2022-07-21T12:19:16;24.50;96.40
37426;DHT22;23285;50.180;7.036;2022-07-21T12:22:02;24.40;97.20
37426;DHT22;23285;50.180;7.036;2022-07-21T12:30:41;24.90;97.90
37426;DHT22;23285;50.180;7.036;2022-07-21T12:33:28;25.10;97.70
37426;DHT22;23285;50.180;7.036;2022-07-21T12:41:58;24.80;97.30
37426;DHT22;23285;50.180;7.036;2022-07-21T12:44:44;24.80;96.90
37426;DHT22;23285;50.180;7.036;2022-07-21T12:53:00;25.40;97.10
37426;DHT22;23285;50.180;7.036;2022-07-21T12:58:31;26.10;96.80
37426;DHT22;23285;50.180;7.036;2022-07-21T13:01:19;25.80;95.40
37426;DHT22;23285;50.180;7.036;2022-07-21T13:06:50;25.60;96.50
37426;DHT22;23285;50.180;7.036;2022-07-21T13:09:35;25.70;94.70
37426;DHT22;23285;50.180;7.036;2022-07-21T13:12:20;25.90;94.90
37426;DHT22;23285;50.180;7.036;2022-07-21T13:15:06;25.60;94.40
37426;DHT22;23285;50.180;7.036;2022-07-21T13:17:51;25.50;96.40
37426;DHT22;23285;50.180;7.036;2022-07-21T13:20:36;25.50;94.30
37426;DHT22;23285;50.180;7.036;2022-07-21T13:23:22;25.50;94.60
37426;DHT22;23285;50.180;7.036;2022-07-21T13:26:07;25.40;94.70
37426;DHT22;23285;50.180;7.036;2022-07-21T13:28:52;24.90;94.70
37426;DHT22;23285;50.180;7.036;2022-07-21T13:37:09;24.50;97.60
37426;DHT22;23285;50.180;7.036;2022-07-21T13:39:56;24.50;96.10
37426;DHT22;23285;50.180;7.036;2022-07-21T13:48:12;24.40;98.10
37426;DHT22;23285;50.180;7.036;2022-07-21T13:50:57;24.50;96.60
37426;DHT22;23285;50.180;7.036;2022-07-21T13:53:44;24.50;96.60
37426;DHT22;23285;50.180;7.036;2022-07-21T13:56:30;24.70;97.50
37426;DHT22;23285;50.180;7.036;2022-07-21T14:02:01;24.50;97.80
37426;DHT22;23285;50.180;7.036;2022-07-21T14:04:46;24.20;96.50
37426;DHT22;23285;50.180;7.036;2022-07-21T14:07:31;24.00;96.70
37426;DHT22;23285;50.180;7.036;2022-07-21T14:10:17;24.00;96.70
37426;DHT22;23285;50.180;7.036;2022-07-21T14:13:02;23.80;97.40
37426;DHT22;23285;50.180;7.036;2022-07-21T14:15:49;23.70;99.90
37426;DHT22;23285;50.180;7.036;2022-07-21T14:18:35;23.40;99.50
37426;DHT22;23285;50.180;7.036;2022-07-21T14:21:20;23.20;99.90
37426;DHT22;23285;50.180;7.036;2022-07-21T14:24:06;23.20;99.40
37426;DHT22;23285;50.180;7.036;2022-07-21T14:27:09;23.20;99.90
37426;DHT22;23285;50.180;7.036;2022-07-21T14:29:55;23.50;99.60
37426;DHT22;23285;50.180;7.036;2022-07-21T14:32:41;23.60;99.70
37426;DHT22;23285;50.180;7.036;2022-07-21T14:35:26;23.40;99.40
37426;DHT22;23285;50.180;7.036;2022-07-21T14:40:57;23.40;99.90
37426;DHT22;23285;50.180;7.036;2022-07-21T14:43:43;23.30;99.90
37426;DHT22;23285;50.180;7.036;2022-07-21T14:49:14;23.60;99.90
37426;DHT22;23285;50.180;7.036;2022-07-21T14:57:31;23.90;99.90
37426;DHT22;23285;50.180;7.036;2022-07-21T15:05:47;24.20;99.90
37426;DHT22;23285;50.180;7.036;2022-07-21T15:08:33;23.90;98.90
37426;DHT22;23285;50.180;7.036;2022-07-21T15:16:49;23.60;99.90
37426;DHT22;23285;50.180;7.036;2022-07-21T15:19:34;23.70;99.10
37426;DHT22;23285;50.180;7.036;2022-07-21T15:22:19;24.00;99.50
37426;DHT22;23285;50.180;7.036;2022-07-21T15:25:05;23.90;99.90
37426;DHT22;23285;50.180;7.036;2022-07-21T15:27:54;23.80;99.90
37426;DHT22;23285;50.180;7.036;2022-07-21T15:33:25;23.70;99.90
37426;DHT22;23285;50.180;7.036;2022-07-21T15:36:10;23.90;99.80
37426;DHT22;23285;50.180;7.036;2022-07-21T15:38:56;24.00;99.70
37426;DHT22;23285;50.180;7.036;2022-07-21T15:41:44;23.70;99.90
37426;DHT22;23285;50.180;7.036;2022-07-21T15:44:30;23.60;99.90
37426;DHT22;23285;50.180;7.036;2022-07-21T15:50:01;23.50;99.90
37426;DHT22;23285;50.180;7.036;2022-07-21T15:52:46;23.50;99.90
37426;DHT22;23285;50.180;7.036;2022-07-21T15:58:17;23.50;99.90
37426;DHT22;23285;50.180;7.036;2022-07-21T16:03:48;24.00;99.90
37426;DHT22;23285;50.180;7.036;2022-07-21T16:06:34;23.90;99.90
37426;DHT22;23285;50.180;7.036;2022-07-21T16:12:06;24.10;99.90
37426;DHT22;23285;50.180;7.036;2022-07-21T16:14:52;24.20;99.90
37426;DHT22;23285;50.180;7.036;2022-07-21T16:17:37;24.50;99.90
37426;DHT22;23285;50.180;7.036;2022-07-21T16:25:54;24.70;99.70
37426;DHT22;23285;50.180;7.036;2022-07-21T16:28:39;24.60;99.30
37426;DHT22;23285;50.180;7.036;2022-07-21T16:31:24;24.30;99.90
37426;DHT22;23285;50.180;7.036;2022-07-21T16:34:10;24.30;99.90
37426;DHT22;23285;50.180;7.036;2022-07-21T16:39:40;23.80;99.90
37426;DHT22;23285;50.180;7.036;2022-07-21T16:42:26;23.90;99.90
37426;DHT22;23285;50.180;7.036;2022-07-21T16:45:11;23.90;99.90
37426;DHT22;23285;50.180;7.036;2022-07-21T16:47:56;23.80;99.90
37426;DHT22;23285;50.180;7.036;2022-07-21T16:50:41;23.70;99.90
37426;DHT22;23285;50.180;7.036;2022-07-21T16:58:57;23.40;99.90
37426;DHT22;23285;50.180;7.036;2022-07-21T17:01:43;23.40;99.90
37426;DHT22;23285;50.180;7.036;2022-07-21T17:04:28;23.60;99.90
37426;DHT22;23285;50.180;7.036;2022-07-21T17:07:13;23.50;99.90
37426;DHT22;23285;50.180;7.036;2022-07-21T17:09:58;23.30;99.90
37426;DHT22;23285;50.180;7.036;2022-07-21T17:12:43;23.40;99.90
37426;DHT22;23285;50.180;7.036;2022-07-21T17:18:14;23.80;99.90
37426;DHT22;23285;50.180;7.036;2022-07-21T17:21:00;23.80;99.90
37426;DHT22;23285;50.180;7.036;2022-07-21T17:26:32;23.90;99.90
37426;DHT22;23285;50.180;7.036;2022-07-21T17:29:18;23.80;99.90
37426;DHT22;23285;50.180;7.036;2022-07-21T17:32:03;23.80;99.90
37426;DHT22;23285;50.180;7.036;2022-07-21T17:34:48;23.60;99.90
37426;DHT22;23285;50.180;7.036;2022-07-21T17:37:34;23.50;99.90
37426;DHT22;23285;50.180;7.036;2022-07-21T17:40:19;23.70;99.90
37426;DHT22;23285;50.180;7.036;2022-07-21T17:43:05;23.70;99.90
37426;DHT22;23285;50.180;7.036;2022-07-21T17:45:50;23.70;99.90
37426;DHT22;23285;50.180;7.036;2022-07-21T17:48:35;23.70;99.90
37426;DHT22;23285;50.180;7.036;2022-07-21T17:51:20;23.60;99.90
37426;DHT22;23285;50.180;7.036;2022-07-21T17:54:06;23.30;99.90
37426;DHT22;23285;50.180;7.036;2022-07-21T17:56:51;23.40;99.90
37426;DHT22;23285;50.180;7.036;2022-07-21T17:59:56;23.30;99.90
37426;DHT22;23285;50.180;7.036;2022-07-21T18:02:41;23.60;99.90
37426;DHT22;23285;50.180;7.036;2022-07-21T18:05:27;23.70;99.90
37426;DHT22;23285;50.180;7.036;2022-07-21T18:08:12;23.50;99.90
37426;DHT22;23285;50.180;7.036;2022-07-21T18:10:58;23.50;99.90
37426;DHT22;23285;50.180;7.036;2022-07-21T18:13:44;23.10;99.90
37426;DHT22;23285;50.180;7.036;2022-07-21T18:19:15;23.30;99.90
37426;DHT22;23285;50.180;7.036;2022-07-21T18:22:00;23.00;99.90
37426;DHT22;23285;50.180;7.036;2022-07-21T18:24:45;22.80;99.90
37426;DHT22;23285;50.180;7.036;2022-07-21T18:27:30;23.00;99.90
37426;DHT22;23285;50.180;7.036;2022-07-21T18:30:15;22.50;99.90
37426;DHT22;23285;50.180;7.036;2022-07-21T18:33:01;22.50;99.90
37426;DHT22;23285;50.180;7.036;2022-07-21T18:38:32;22.60;99.90
37426;DHT22;23285;50.180;7.036;2022-07-21T18:41:17;22.30;99.90
37426;DHT22;23285;50.180;7.036;2022-07-21T18:44:04;22.30;99.90
37426;DHT22;23285;50.180;7.036;2022-07-21T18:46:49;22.10;99.90
37426;DHT22;23285;50.180;7.036;2022-07-21T18:49:34;22.10;99.90
37426;DHT22;23285;50.180;7.036;2022-07-21T18:57:52;21.70;99.90
37426;DHT22;23285;50.180;7.036;2022-07-21T19:00:37;21.60;99.90
37426;DHT22;23285;50.180;7.036;2022-07-21T19:03:23;21.60;99.90
37426;DHT22;23285;50.180;7.036;2022-07-21T19:08:54;21.30;99.90
37426;DHT22;23285;50.180;7.036;2022-07-21T19:11:41;21.60;99.90
37426;DHT22;23285;50.180;7.036;2022-07-21T19:14:27;21.40;99.90
37426;DHT22;23285;50.180;7.036;2022-07-21T19:19:57;22.00;99.90
37426;DHT22;23285;50.180;7.036;2022-07-21T19:25:28;21.90;99.90
37426;DHT22;23285;50.180;7.036;2022-07-21T19:28:14;22.00;99.90
37426;DHT22;23285;50.180;7.036;2022-07-21T19:30:59;21.70;99.90
37426;DHT22;23285;50.180;7.036;2022-07-21T19:33:44;21.80;99.90
37426;DHT22;23285;50.180;7.036;2022-07-21T19:39:15;22.00;99.90
37426;DHT22;23285;50.180;7.036;2022-07-21T19:42:00;21.60;99.90
37426;DHT22;23285;50.180;7.036;2022-07-21T19:44:46;21.30;99.90
37426;DHT22;23285;50.180;7.036;2022-07-21T19:47:32;21.20;99.90
37426;DHT22;23285;50.180;7.036;2022-07-21T19:50:17;21.60;99.90
37426;DHT22;23285;50.180;7.036;2022-07-21T19:55:48;21.30;99.90
37426;DHT22;23285;50.180;7.036;2022-07-21T19:58:33;21.40;99.90
37426;DHT22;23285;50.180;7.036;2022-07-21T20:01:19;21.20;99.90
37426;DHT22;23285;50.180;7.036;2022-07-21T20:06:49;21.20;99.90
37426;DHT22;23285;50.180;7.036;2022-07-21T20:09:35;21.50;99.90
37426;DHT22;23285;50.180;7.036;2022-07-21T20:12:20;21.30;99.90
37426;DHT22;23285;50.180;7.036;2022-07-21T20:15:07;21.10;99.90
37426;DHT22;23285;50.180;7.036;2022-07-21T20:20:38;21.40;99.90
37426;DHT22;23285;50.180;7.036;2022-07-21T20:26:09;21.10;99.90
37426;DHT22;23285;50.180;7.036;2022-07-21T20:28:54;21.40;99.90
37426;DHT22;23285;50.180;7.036;2022-07-21T20:31:40;21.40;99.90
37426;DHT22;23285;50.180;7.036;2022-07-21T20:34:25;21.40;99.90
37426;DHT22;23285;50.180;7.036;2022-07-21T20:39:55;21.60;99.90
37426;DHT22;23285;50.180;7.036;2022-07-21T20:42:42;21.80;99.90
37426;DHT22;23285;50.180;7.036;2022-07-21T20:45:27;21.80;99.90
37426;DHT22;23285;50.180;7.036;2022-07-21T20:48:14;21.60;99.90
37426;DHT22;23285;50.180;7.036;2022-07-21T20:50:59;21.40;99.90
37426;DHT22;23285;50.180;7.036;2022-07-21T20:56:29;21.50;99.90
37426;DHT22;23285;50.180;7.036;2022-07-21T21:02:00;21.40;99.90
37426;DHT22;23285;50.180;7.036;2022-07-21T21:04:45;21.60;99.90
37426;DHT22;23285;50.180;7.036;2022-07-21T21:10:16;21.60;99.90
37426;DHT22;23285;50.180;7.036;2022-07-21T21:13:03;21.70;99.90
37426;DHT22;23285;50.180;7.036;2022-07-21T21:15:48;21.50;99.90
37426;DHT22;23285;50.180;7.036;2022-07-21T21:18:33;21.50;99.90
37426;DHT22;23285;50.180;7.036;2022-07-21T21:21:18;21.90;99.90
37426;DHT22;23285;50.180;7.036;2022-07-21T21:24:04;21.90;99.90
37426;DHT22;23285;50.180;7.036;2022-07-21T21:26:50;21.70;99.90
37426;DHT22;23285;50.180;7.036;2022-07-21T21:29:35;21.20;99.90
37426;DHT22;23285;50.180;7.036;2022-07-21T21:35:09;20.90;99.90
37426;DHT22;23285;50.180;7.036;2022-07-21T21:37:54;21.00;99.90
37426;DHT22;23285;50.180;7.036;2022-07-21T21:40:40;21.40;99.90
37426;DHT22;23285;50.180;7.036;2022-07-21T21:43:25;21.40;99.90
37426;DHT22;23285;50.180;7.036;2022-07-21T21:46:10;21.10;99.90
37426;DHT22;23285;50.180;7.036;2022-07-21T21:51:41;21.00;99.90
37426;DHT22;23285;50.180;7.036;2022-07-21T21:57:12;20.70;99.90
37426;DHT22;23285;50.180;7.036;2022-07-21T21:59:57;21.10;99.90
37426;DHT22;23285;50.180;7.036;2022-07-21T22:02:43;21.20;99.90
37426;DHT22;23285;50.180;7.036;2022-07-21T22:05:29;20.90;99.90
37426;DHT22;23285;50.180;7.036;2022-07-21T22:08:14;20.70;99.90
37426;DHT22;23285;50.180;7.036;2022-07-21T22:11:00;20.80;99.90
37426;DHT22;23285;50.180;7.036;2022-07-21T22:13:45;20.80;99.90
37426;DHT22;23285;50.180;7.036;2022-07-21T22:16:31;20.60;99.90
37426;DHT22;23285;50.180;7.036;2022-07-21T22:19:16;20.70;99.90
37426;DHT22;23285;50.180;7.036;2022-07-21T22:26:28;20.60;99.90
37426;DHT22;23285;50.180;7.036;2022-07-21T22:29:14;20.80;99.90
37426;DHT22;23285;50.180;7.036;2022-07-21T22:34:45;20.50;99.90
37426;DHT22;23285;50.180;7.036;2022-07-21T22:37:30;20.60;99.90
37426;DHT22;23285;50.180;7.036;2022-07-21T22:40:15;20.30;99.90
37426;DHT22;23285;50.180;7.036;2022-07-21T22:43:00;19.60;99.90